sensor_id;sensor_type;location;lat;lon;timestamp;P1;durP1;ratioP1;P2;durP2;ratioP2
35990;SDS011;22064;42.672;23.282;2023-04-08T00:00:11;43.88;;;24.65;;
35990;SDS011;22064;42.672;23.282;2023-04-08T00:02:39;46.17;;;24.05;;
35990;SDS011;22064;42.672;23.282;2023-04-08T00:05:05;46.05;;;25.67;;
35990;SDS011;22064;42.672;23.282;2023-04-08T00:07:31;45.28;;;24.80;;
35990;SDS011;22064;42.672;23.282;2023-04-08T00:09:57;47.88;;;26.58;;
35990;SDS011;22064;42.672;23.282;2023-04-08T00:12:23;41.55;;;24.27;;
35990;SDS011;22064;42.672;23.282;2023-04-08T00:14:49;45.10;;;26.20;;
35990;SDS011;22064;42.672;23.282;2023-04-08T00:17:15;43.47;;;23.95;;
35990;SDS011;22064;42.672;23.282;2023-04-08T00:19:42;44.30;;;24.33;;
35990;SDS011;22064;42.672;23.282;2023-04-08T00:22:09;42.42;;;22.42;;
35990;SDS011;22064;42.672;23.282;2023-04-08T00:24:36;43.70;;;23.55;;
35990;SDS011;22064;42.672;23.282;2023-04-08T00:27:02;39.83;;;22.75;;
35990;SDS011;22064;42.672;23.282;2023-04-08T00:29:28;41.85;;;23.35;;
35990;SDS011;22064;42.672;23.282;2023-04-08T00:31:54;40.58;;;23.08;;
35990;SDS011;22064;42.672;23.282;2023-04-08T00:34:21;40.92;;;22.13;;
35990;SDS011;22064;42.672;23.282;2023-04-08T00:36:48;41.08;;;22.67;;
35990;SDS011;22064;42.672;23.282;2023-04-08T00:39:14;40.05;;;23.15;;
35990;SDS011;22064;42.672;23.282;2023-04-08T00:41:41;41.55;;;22.95;;
35990;SDS011;22064;42.672;23.282;2023-04-08T00:44:07;39.53;;;22.15;;
35990;SDS011;22064;42.672;23.282;2023-04-08T00:46:35;38.05;;;23.08;;
35990;SDS011;22064;42.672;23.282;2023-04-08T00:49:04;38.70;;;22.50;;
35990;SDS011;22064;42.672;23.282;2023-04-08T00:51:32;40.75;;;23.05;;
35990;SDS011;22064;42.672;23.282;2023-04-08T00:54:01;36.45;;;22.52;;
35990;SDS011;22064;42.672;23.282;2023-04-08T00:56:30;38.67;;;21.63;;
35990;SDS011;22064;42.672;23.282;2023-04-08T00:58:57;41.65;;;22.27;;
35990;SDS011;22064;42.672;23.282;2023-04-08T01:04:16;39.47;;;23.10;;
35990;SDS011;22064;42.672;23.282;2023-04-08T01:06:56;38.05;;;22.30;;
35990;SDS011;22064;42.672;23.282;2023-04-08T01:09:29;39.42;;;22.75;;
35990;SDS011;22064;42.672;23.282;2023-04-08T01:11:57;40.90;;;24.05;;
35990;SDS011;22064;42.672;23.282;2023-04-08T01:14:28;41.92;;;24.02;;
35990;SDS011;22064;42.672;23.282;2023-04-08T01:16:56;44.58;;;24.52;;
35990;SDS011;22064;42.672;23.282;2023-04-08T01:19:31;44.75;;;25.08;;
35990;SDS011;22064;42.672;23.282;2023-04-08T01:22:06;41.80;;;24.65;;
35990;SDS011;22064;42.672;23.282;2023-04-08T01:24:56;41.45;;;24.75;;
35990;SDS011;22064;42.672;23.282;2023-04-08T01:27:27;41.65;;;24.80;;
35990;SDS011;22064;42.672;23.282;2023-04-08T01:29:57;39.65;;;23.67;;
35990;SDS011;22064;42.672;23.282;2023-04-08T01:32:24;40.67;;;24.15;;
35990;SDS011;22064;42.672;23.282;2023-04-08T01:34:53;41.35;;;23.20;;
35990;SDS011;22064;42.672;23.282;2023-04-08T01:37:21;42.72;;;25.35;;
35990;SDS011;22064;42.672;23.282;2023-04-08T01:39:52;49.40;;;26.42;;
35990;SDS011;22064;42.672;23.282;2023-04-08T01:42:24;45.70;;;26.63;;
35990;SDS011;22064;42.672;23.282;2023-04-08T01:44:54;51.03;;;28.63;;
35990;SDS011;22064;42.672;23.282;2023-04-08T01:47:22;46.85;;;27.27;;
35990;SDS011;22064;42.672;23.282;2023-04-08T01:49:50;47.58;;;29.25;;
35990;SDS011;22064;42.672;23.282;2023-04-08T01:52:17;51.38;;;29.85;;
35990;SDS011;22064;42.672;23.282;2023-04-08T01:54:45;52.10;;;30.55;;
35990;SDS011;22064;42.672;23.282;2023-04-08T01:57:13;55.60;;;31.40;;
35990;SDS011;22064;42.672;23.282;2023-04-08T01:59:48;56.28;;;31.65;;
35990;SDS011;22064;42.672;23.282;2023-04-08T02:02:16;55.75;;;32.40;;
35990;SDS011;22064;42.672;23.282;2023-04-08T02:04:45;54.85;;;31.15;;
35990;SDS011;22064;42.672;23.282;2023-04-08T02:07:11;59.13;;;31.05;;
35990;SDS011;22064;42.672;23.282;2023-04-08T02:09:38;56.75;;;31.65;;
35990;SDS011;22064;42.672;23.282;2023-04-08T02:12:04;55.53;;;29.75;;
35990;SDS011;22064;42.672;23.282;2023-04-08T02:14:30;57.08;;;30.25;;
35990;SDS011;22064;42.672;23.282;2023-04-08T02:22:24;55.28;;;30.15;;
35990;SDS011;22064;42.672;23.282;2023-04-08T02:24:58;56.78;;;30.00;;
35990;SDS011;22064;42.672;23.282;2023-04-08T02:27:27;55.88;;;31.30;;
35990;SDS011;22064;42.672;23.282;2023-04-08T02:29:54;58.03;;;30.05;;
35990;SDS011;22064;42.672;23.282;2023-04-08T02:32:22;55.97;;;30.88;;
35990;SDS011;22064;42.672;23.282;2023-04-08T02:34:50;57.33;;;31.27;;
35990;SDS011;22064;42.672;23.282;2023-04-08T02:37:18;58.17;;;30.88;;
35990;SDS011;22064;42.672;23.282;2023-04-08T02:39:44;59.17;;;31.85;;
35990;SDS011;22064;42.672;23.282;2023-04-08T02:42:10;58.90;;;30.65;;
35990;SDS011;22064;42.672;23.282;2023-04-08T02:44:36;53.70;;;29.73;;
35990;SDS011;22064;42.672;23.282;2023-04-08T02:47:02;57.35;;;31.77;;
35990;SDS011;22064;42.672;23.282;2023-04-08T02:49:28;52.95;;;31.00;;
35990;SDS011;22064;42.672;23.282;2023-04-08T02:51:56;55.92;;;30.90;;
35990;SDS011;22064;42.672;23.282;2023-04-08T02:54:22;57.15;;;31.02;;
35990;SDS011;22064;42.672;23.282;2023-04-08T02:56:49;59.95;;;31.42;;
35990;SDS011;22064;42.672;23.282;2023-04-08T02:59:15;56.08;;;30.85;;
35990;SDS011;22064;42.672;23.282;2023-04-08T03:01:41;59.70;;;30.92;;
35990;SDS011;22064;42.672;23.282;2023-04-08T03:04:07;58.95;;;31.33;;
35990;SDS011;22064;42.672;23.282;2023-04-08T03:06:33;56.47;;;30.92;;
35990;SDS011;22064;42.672;23.282;2023-04-08T03:08:59;56.40;;;29.35;;
35990;SDS011;22064;42.672;23.282;2023-04-08T03:11:25;50.55;;;28.17;;
35990;SDS011;22064;42.672;23.282;2023-04-08T03:13:51;47.22;;;27.50;;
35990;SDS011;22064;42.672;23.282;2023-04-08T03:16:17;51.47;;;28.15;;
35990;SDS011;22064;42.672;23.282;2023-04-08T03:18:43;48.90;;;26.98;;
35990;SDS011;22064;42.672;23.282;2023-04-08T03:21:08;47.90;;;27.33;;
35990;SDS011;22064;42.672;23.282;2023-04-08T03:23:35;52.65;;;27.90;;
35990;SDS011;22064;42.672;23.282;2023-04-08T03:26:01;51.95;;;27.75;;
35990;SDS011;22064;42.672;23.282;2023-04-08T03:28:26;49.90;;;27.33;;
35990;SDS011;22064;42.672;23.282;2023-04-08T03:30:52;50.55;;;28.33;;
35990;SDS011;22064;42.672;23.282;2023-04-08T03:33:18;50.80;;;27.67;;
35990;SDS011;22064;42.672;23.282;2023-04-08T03:35:44;48.35;;;27.08;;
35990;SDS011;22064;42.672;23.282;2023-04-08T03:38:10;52.25;;;27.17;;
35990;SDS011;22064;42.672;23.282;2023-04-08T03:40:36;47.42;;;26.35;;
35990;SDS011;22064;42.672;23.282;2023-04-08T03:43:02;49.65;;;27.17;;
35990;SDS011;22064;42.672;23.282;2023-04-08T03:45:30;48.47;;;27.52;;
35990;SDS011;22064;42.672;23.282;2023-04-08T03:47:56;49.67;;;27.30;;
35990;SDS011;22064;42.672;23.282;2023-04-08T03:50:22;47.22;;;26.42;;
35990;SDS011;22064;42.672;23.282;2023-04-08T03:52:48;46.65;;;26.80;;
35990;SDS011;22064;42.672;23.282;2023-04-08T03:55:14;45.85;;;25.70;;
35990;SDS011;22064;42.672;23.282;2023-04-08T03:57:40;47.20;;;27.08;;
35990;SDS011;22064;42.672;23.282;2023-04-08T04:00:06;49.22;;;27.20;;
35990;SDS011;22064;42.672;23.282;2023-04-08T04:02:37;50.08;;;27.48;;
35990;SDS011;22064;42.672;23.282;2023-04-08T04:05:04;52.45;;;26.70;;
35990;SDS011;22064;42.672;23.282;2023-04-08T04:07:30;51.00;;;27.02;;
35990;SDS011;22064;42.672;23.282;2023-04-08T04:09:56;53.72;;;28.75;;
35990;SDS011;22064;42.672;23.282;2023-04-08T04:12:22;49.65;;;26.90;;
35990;SDS011;22064;42.672;23.282;2023-04-08T04:14:48;48.80;;;27.40;;
35990;SDS011;22064;42.672;23.282;2023-04-08T04:17:14;49.70;;;28.45;;
35990;SDS011;22064;42.672;23.282;2023-04-08T04:19:40;49.70;;;29.08;;
35990;SDS011;22064;42.672;23.282;2023-04-08T04:22:06;50.95;;;28.40;;
35990;SDS011;22064;42.672;23.282;2023-04-08T04:24:32;55.60;;;30.27;;
35990;SDS011;22064;42.672;23.282;2023-04-08T04:26:58;49.42;;;27.65;;
35990;SDS011;22064;42.672;23.282;2023-04-08T04:29:24;49.83;;;28.13;;
35990;SDS011;22064;42.672;23.282;2023-04-08T04:31:50;55.78;;;28.20;;
35990;SDS011;22064;42.672;23.282;2023-04-08T04:34:16;49.67;;;26.83;;
35990;SDS011;22064;42.672;23.282;2023-04-08T04:36:42;54.83;;;29.42;;
35990;SDS011;22064;42.672;23.282;2023-04-08T04:39:08;49.22;;;26.65;;
35990;SDS011;22064;42.672;23.282;2023-04-08T04:41:34;51.30;;;27.27;;
35990;SDS011;22064;42.672;23.282;2023-04-08T04:44:04;48.85;;;27.50;;
35990;SDS011;22064;42.672;23.282;2023-04-08T04:46:31;53.58;;;27.55;;
35990;SDS011;22064;42.672;23.282;2023-04-08T04:48:57;52.70;;;29.17;;
35990;SDS011;22064;42.672;23.282;2023-04-08T04:51:23;52.85;;;29.23;;
35990;SDS011;22064;42.672;23.282;2023-04-08T04:53:49;54.08;;;30.98;;
35990;SDS011;22064;42.672;23.282;2023-04-08T04:56:15;53.60;;;30.10;;
35990;SDS011;22064;42.672;23.282;2023-04-08T04:58:40;55.17;;;29.25;;
35990;SDS011;22064;42.672;23.282;2023-04-08T05:01:06;57.33;;;29.05;;
35990;SDS011;22064;42.672;23.282;2023-04-08T05:03:32;48.42;;;26.48;;
35990;SDS011;22064;42.672;23.282;2023-04-08T05:05:58;50.45;;;26.88;;
35990;SDS011;22064;42.672;23.282;2023-04-08T05:08:25;49.78;;;27.70;;
35990;SDS011;22064;42.672;23.282;2023-04-08T05:10:51;52.08;;;27.02;;
35990;SDS011;22064;42.672;23.282;2023-04-08T05:13:17;48.38;;;26.90;;
35990;SDS011;22064;42.672;23.282;2023-04-08T05:15:43;50.97;;;29.48;;
35990;SDS011;22064;42.672;23.282;2023-04-08T05:18:12;43.95;;;23.70;;
35990;SDS011;22064;42.672;23.282;2023-04-08T05:20:38;54.83;;;29.08;;
35990;SDS011;22064;42.672;23.282;2023-04-08T05:23:04;53.22;;;30.52;;
35990;SDS011;22064;42.672;23.282;2023-04-08T05:25:31;51.05;;;28.20;;
35990;SDS011;22064;42.672;23.282;2023-04-08T05:27:57;54.80;;;29.98;;
35990;SDS011;22064;42.672;23.282;2023-04-08T05:30:23;48.00;;;27.92;;
35990;SDS011;22064;42.672;23.282;2023-04-08T05:32:49;50.63;;;28.45;;
35990;SDS011;22064;42.672;23.282;2023-04-08T05:35:15;53.40;;;29.70;;
35990;SDS011;22064;42.672;23.282;2023-04-08T05:37:41;54.20;;;29.30;;
35990;SDS011;22064;42.672;23.282;2023-04-08T05:40:07;55.40;;;29.55;;
35990;SDS011;22064;42.672;23.282;2023-04-08T05:42:33;59.50;;;30.98;;
35990;SDS011;22064;42.672;23.282;2023-04-08T05:45:00;53.72;;;31.00;;
35990;SDS011;22064;42.672;23.282;2023-04-08T05:47:26;57.13;;;30.48;;
35990;SDS011;22064;42.672;23.282;2023-04-08T05:49:52;52.08;;;30.20;;
35990;SDS011;22064;42.672;23.282;2023-04-08T05:52:18;53.22;;;30.45;;
35990;SDS011;22064;42.672;23.282;2023-04-08T05:54:44;55.25;;;30.83;;
35990;SDS011;22064;42.672;23.282;2023-04-08T05:57:10;55.05;;;31.52;;
35990;SDS011;22064;42.672;23.282;2023-04-08T05:59:36;55.58;;;31.48;;
35990;SDS011;22064;42.672;23.282;2023-04-08T06:02:02;54.72;;;31.02;;
35990;SDS011;22064;42.672;23.282;2023-04-08T06:04:29;57.40;;;32.58;;
35990;SDS011;22064;42.672;23.282;2023-04-08T06:06:55;57.13;;;32.50;;
35990;SDS011;22064;42.672;23.282;2023-04-08T06:09:25;64.35;;;35.50;;
35990;SDS011;22064;42.672;23.282;2023-04-08T06:11:51;61.00;;;34.25;;
35990;SDS011;22064;42.672;23.282;2023-04-08T06:14:17;57.25;;;33.10;;
35990;SDS011;22064;42.672;23.282;2023-04-08T06:16:45;57.80;;;30.30;;
35990;SDS011;22064;42.672;23.282;2023-04-08T06:19:11;51.22;;;28.35;;
35990;SDS011;22064;42.672;23.282;2023-04-08T06:21:36;53.60;;;30.60;;
35990;SDS011;22064;42.672;23.282;2023-04-08T06:24:02;53.83;;;29.30;;
35990;SDS011;22064;42.672;23.282;2023-04-08T06:26:28;49.38;;;30.05;;
35990;SDS011;22064;42.672;23.282;2023-04-08T06:28:54;52.72;;;29.40;;
35990;SDS011;22064;42.672;23.282;2023-04-08T06:31:20;53.78;;;30.73;;
35990;SDS011;22064;42.672;23.282;2023-04-08T06:33:46;50.67;;;32.63;;
35990;SDS011;22064;42.672;23.282;2023-04-08T06:36:12;52.72;;;29.85;;
35990;SDS011;22064;42.672;23.282;2023-04-08T06:38:38;53.40;;;30.17;;
35990;SDS011;22064;42.672;23.282;2023-04-08T06:41:05;49.75;;;28.05;;
35990;SDS011;22064;42.672;23.282;2023-04-08T06:43:31;49.42;;;28.00;;
35990;SDS011;22064;42.672;23.282;2023-04-08T06:45:58;47.67;;;27.30;;
35990;SDS011;22064;42.672;23.282;2023-04-08T06:48:24;47.92;;;27.38;;
35990;SDS011;22064;42.672;23.282;2023-04-08T06:50:55;45.78;;;26.80;;
35990;SDS011;22064;42.672;23.282;2023-04-08T06:53:22;43.30;;;26.42;;
35990;SDS011;22064;42.672;23.282;2023-04-08T06:55:51;46.45;;;24.55;;
35990;SDS011;22064;42.672;23.282;2023-04-08T06:58:17;43.85;;;25.80;;
35990;SDS011;22064;42.672;23.282;2023-04-08T07:00:43;43.85;;;26.10;;
35990;SDS011;22064;42.672;23.282;2023-04-08T07:03:09;43.72;;;24.45;;
35990;SDS011;22064;42.672;23.282;2023-04-08T07:05:36;40.50;;;24.10;;
35990;SDS011;22064;42.672;23.282;2023-04-08T07:08:03;42.88;;;22.48;;
35990;SDS011;22064;42.672;23.282;2023-04-08T07:10:30;37.78;;;22.58;;
35990;SDS011;22064;42.672;23.282;2023-04-08T07:12:56;38.65;;;20.65;;
35990;SDS011;22064;42.672;23.282;2023-04-08T07:15:22;44.70;;;23.40;;
35990;SDS011;22064;42.672;23.282;2023-04-08T07:17:48;33.60;;;19.65;;
35990;SDS011;22064;42.672;23.282;2023-04-08T07:20:14;31.25;;;17.45;;
35990;SDS011;22064;42.672;23.282;2023-04-08T07:22:40;26.25;;;15.13;;
35990;SDS011;22064;42.672;23.282;2023-04-08T07:25:06;27.80;;;16.70;;
35990;SDS011;22064;42.672;23.282;2023-04-08T07:27:32;29.52;;;15.93;;
35990;SDS011;22064;42.672;23.282;2023-04-08T07:29:59;29.35;;;16.70;;
35990;SDS011;22064;42.672;23.282;2023-04-08T07:32:25;27.08;;;15.50;;
35990;SDS011;22064;42.672;23.282;2023-04-08T07:34:51;32.25;;;16.15;;
35990;SDS011;22064;42.672;23.282;2023-04-08T07:37:17;25.85;;;15.27;;
35990;SDS011;22064;42.672;23.282;2023-04-08T07:39:43;27.40;;;15.55;;
35990;SDS011;22064;42.672;23.282;2023-04-08T07:42:09;27.35;;;15.55;;
35990;SDS011;22064;42.672;23.282;2023-04-08T07:44:36;25.30;;;14.80;;
35990;SDS011;22064;42.672;23.282;2023-04-08T07:47:03;26.98;;;15.25;;
35990;SDS011;22064;42.672;23.282;2023-04-08T07:49:28;30.17;;;16.77;;
35990;SDS011;22064;42.672;23.282;2023-04-08T07:51:54;32.38;;;16.63;;
35990;SDS011;22064;42.672;23.282;2023-04-08T07:54:21;26.17;;;15.90;;
35990;SDS011;22064;42.672;23.282;2023-04-08T07:56:47;27.30;;;15.25;;
35990;SDS011;22064;42.672;23.282;2023-04-08T07:59:13;27.35;;;15.57;;
35990;SDS011;22064;42.672;23.282;2023-04-08T08:01:39;28.17;;;16.58;;
35990;SDS011;22064;42.672;23.282;2023-04-08T08:04:05;28.15;;;16.00;;
35990;SDS011;22064;42.672;23.282;2023-04-08T08:06:31;25.88;;;15.57;;
35990;SDS011;22064;42.672;23.282;2023-04-08T08:08:58;27.27;;;15.48;;
35990;SDS011;22064;42.672;23.282;2023-04-08T08:11:24;27.35;;;15.98;;
35990;SDS011;22064;42.672;23.282;2023-04-08T08:13:53;27.13;;;15.93;;
35990;SDS011;22064;42.672;23.282;2023-04-08T08:16:20;27.10;;;15.45;;
35990;SDS011;22064;42.672;23.282;2023-04-08T08:18:46;27.40;;;15.57;;
35990;SDS011;22064;42.672;23.282;2023-04-08T08:21:12;30.02;;;15.52;;
35990;SDS011;22064;42.672;23.282;2023-04-08T08:23:38;26.67;;;14.95;;
35990;SDS011;22064;42.672;23.282;2023-04-08T08:26:05;26.33;;;15.32;;
35990;SDS011;22064;42.672;23.282;2023-04-08T08:28:34;22.80;;;14.77;;
35990;SDS011;22064;42.672;23.282;2023-04-08T08:31:00;25.77;;;14.30;;
35990;SDS011;22064;42.672;23.282;2023-04-08T08:33:28;26.55;;;14.85;;
35990;SDS011;22064;42.672;23.282;2023-04-08T08:35:53;25.95;;;15.52;;
35990;SDS011;22064;42.672;23.282;2023-04-08T08:38:20;28.77;;;15.32;;
35990;SDS011;22064;42.672;23.282;2023-04-08T08:40:46;27.65;;;16.17;;
35990;SDS011;22064;42.672;23.282;2023-04-08T08:43:22;23.98;;;14.85;;
35990;SDS011;22064;42.672;23.282;2023-04-08T08:45:48;27.20;;;15.75;;
35990;SDS011;22064;42.672;23.282;2023-04-08T08:48:15;27.63;;;16.63;;
35990;SDS011;22064;42.672;23.282;2023-04-08T08:50:41;27.45;;;16.00;;
35990;SDS011;22064;42.672;23.282;2023-04-08T08:53:08;29.38;;;16.52;;
35990;SDS011;22064;42.672;23.282;2023-04-08T08:55:34;28.75;;;16.20;;
35990;SDS011;22064;42.672;23.282;2023-04-08T08:58:00;26.73;;;15.90;;
35990;SDS011;22064;42.672;23.282;2023-04-08T09:05:58;28.63;;;16.35;;
35990;SDS011;22064;42.672;23.282;2023-04-08T09:08:36;28.63;;;16.20;;
35990;SDS011;22064;42.672;23.282;2023-04-08T09:11:13;26.45;;;16.63;;
35990;SDS011;22064;42.672;23.282;2023-04-08T09:13:39;26.90;;;16.15;;
35990;SDS011;22064;42.672;23.282;2023-04-08T09:16:06;25.98;;;15.13;;
35990;SDS011;22064;42.672;23.282;2023-04-08T09:18:34;28.75;;;15.85;;
35990;SDS011;22064;42.672;23.282;2023-04-08T09:21:01;29.08;;;16.70;;
35990;SDS011;22064;42.672;23.282;2023-04-08T09:26:07;25.27;;;14.77;;
35990;SDS011;22064;42.672;23.282;2023-04-08T09:28:35;26.95;;;15.18;;
35990;SDS011;22064;42.672;23.282;2023-04-08T09:31:23;30.73;;;16.63;;
35990;SDS011;22064;42.672;23.282;2023-04-08T09:33:49;28.15;;;15.75;;
35990;SDS011;22064;42.672;23.282;2023-04-08T09:36:18;25.55;;;16.20;;
35990;SDS011;22064;42.672;23.282;2023-04-08T09:38:44;27.23;;;15.98;;
35990;SDS011;22064;42.672;23.282;2023-04-08T09:41:12;27.70;;;15.88;;
35990;SDS011;22064;42.672;23.282;2023-04-08T09:46:16;25.20;;;14.90;;
35990;SDS011;22064;42.672;23.282;2023-04-08T09:48:49;26.45;;;15.48;;
35990;SDS011;22064;42.672;23.282;2023-04-08T09:51:23;26.30;;;14.88;;
35990;SDS011;22064;42.672;23.282;2023-04-08T09:53:58;26.55;;;14.32;;
35990;SDS011;22064;42.672;23.282;2023-04-08T09:56:29;24.55;;;13.50;;
35990;SDS011;22064;42.672;23.282;2023-04-08T09:59:08;23.23;;;13.68;;
35990;SDS011;22064;42.672;23.282;2023-04-08T10:01:38;26.02;;;14.25;;
35990;SDS011;22064;42.672;23.282;2023-04-08T10:04:13;23.88;;;13.02;;
35990;SDS011;22064;42.672;23.282;2023-04-08T10:06:51;24.98;;;13.23;;
35990;SDS011;22064;42.672;23.282;2023-04-08T10:09:21;23.75;;;13.30;;
35990;SDS011;22064;42.672;23.282;2023-04-08T10:11:48;25.88;;;14.10;;
35990;SDS011;22064;42.672;23.282;2023-04-08T10:14:15;29.63;;;14.48;;
35990;SDS011;22064;42.672;23.282;2023-04-08T10:16:41;26.85;;;14.05;;
35990;SDS011;22064;42.672;23.282;2023-04-08T10:22:03;27.08;;;14.57;;
35990;SDS011;22064;42.672;23.282;2023-04-08T10:24:29;28.73;;;15.02;;
35990;SDS011;22064;42.672;23.282;2023-04-08T10:26:55;27.73;;;15.30;;
35990;SDS011;22064;42.672;23.282;2023-04-08T10:31:53;26.85;;;15.38;;
35990;SDS011;22064;42.672;23.282;2023-04-08T10:34:20;26.50;;;15.68;;
35990;SDS011;22064;42.672;23.282;2023-04-08T10:36:49;25.27;;;14.57;;
35990;SDS011;22064;42.672;23.282;2023-04-08T10:39:15;27.25;;;14.75;;
35990;SDS011;22064;42.672;23.282;2023-04-08T10:41:45;27.80;;;15.20;;
35990;SDS011;22064;42.672;23.282;2023-04-08T10:44:19;32.28;;;15.30;;
35990;SDS011;22064;42.672;23.282;2023-04-08T10:46:45;28.10;;;16.27;;
35990;SDS011;22064;42.672;23.282;2023-04-08T10:49:13;25.52;;;13.82;;
35990;SDS011;22064;42.672;23.282;2023-04-08T10:51:39;23.52;;;13.98;;
35990;SDS011;22064;42.672;23.282;2023-04-08T10:54:07;25.90;;;14.70;;
35990;SDS011;22064;42.672;23.282;2023-04-08T10:56:34;26.88;;;14.15;;
35990;SDS011;22064;42.672;23.282;2023-04-08T10:59:01;24.30;;;13.63;;
35990;SDS011;22064;42.672;23.282;2023-04-08T11:01:36;26.40;;;14.48;;
35990;SDS011;22064;42.672;23.282;2023-04-08T11:04:10;28.17;;;14.48;;
35990;SDS011;22064;42.672;23.282;2023-04-08T11:06:37;27.25;;;13.73;;
35990;SDS011;22064;42.672;23.282;2023-04-08T11:09:03;27.65;;;14.82;;
35990;SDS011;22064;42.672;23.282;2023-04-08T11:11:29;24.17;;;12.75;;
35990;SDS011;22064;42.672;23.282;2023-04-08T11:13:56;26.75;;;14.25;;
35990;SDS011;22064;42.672;23.282;2023-04-08T11:16:22;27.05;;;14.02;;
35990;SDS011;22064;42.672;23.282;2023-04-08T11:18:49;24.98;;;13.95;;
35990;SDS011;22064;42.672;23.282;2023-04-08T11:21:16;26.40;;;13.68;;
35990;SDS011;22064;42.672;23.282;2023-04-08T11:23:42;26.25;;;13.68;;
35990;SDS011;22064;42.672;23.282;2023-04-08T11:26:08;25.38;;;14.52;;
35990;SDS011;22064;42.672;23.282;2023-04-08T11:28:35;23.90;;;12.98;;
35990;SDS011;22064;42.672;23.282;2023-04-08T11:31:01;25.48;;;14.15;;
35990;SDS011;22064;42.672;23.282;2023-04-08T11:33:32;26.73;;;13.93;;
35990;SDS011;22064;42.672;23.282;2023-04-08T11:36:00;26.95;;;13.55;;
35990;SDS011;22064;42.672;23.282;2023-04-08T11:38:28;24.58;;;13.18;;
35990;SDS011;22064;42.672;23.282;2023-04-08T11:40:57;23.63;;;12.15;;
35990;SDS011;22064;42.672;23.282;2023-04-08T11:43:24;24.20;;;12.27;;
35990;SDS011;22064;42.672;23.282;2023-04-08T11:45:50;21.92;;;12.25;;
35990;SDS011;22064;42.672;23.282;2023-04-08T11:48:17;26.30;;;11.27;;
35990;SDS011;22064;42.672;23.282;2023-04-08T11:50:43;20.23;;;10.00;;
35990;SDS011;22064;42.672;23.282;2023-04-08T11:53:16;19.65;;;10.18;;
35990;SDS011;22064;42.672;23.282;2023-04-08T11:55:46;19.60;;;11.35;;
35990;SDS011;22064;42.672;23.282;2023-04-08T11:58:13;19.60;;;11.05;;
35990;SDS011;22064;42.672;23.282;2023-04-08T12:00:40;22.45;;;10.57;;
35990;SDS011;22064;42.672;23.282;2023-04-08T12:03:07;19.60;;;10.55;;
35990;SDS011;22064;42.672;23.282;2023-04-08T12:05:33;18.90;;;9.90;;
35990;SDS011;22064;42.672;23.282;2023-04-08T12:07:59;20.70;;;9.70;;
35990;SDS011;22064;42.672;23.282;2023-04-08T12:10:25;20.10;;;10.90;;
35990;SDS011;22064;42.672;23.282;2023-04-08T12:12:51;18.77;;;10.43;;
35990;SDS011;22064;42.672;23.282;2023-04-08T12:15:17;21.50;;;10.82;;
35990;SDS011;22064;42.672;23.282;2023-04-08T12:17:44;17.67;;;9.55;;
35990;SDS011;22064;42.672;23.282;2023-04-08T12:20:10;16.45;;;9.40;;
35990;SDS011;22064;42.672;23.282;2023-04-08T12:22:37;19.48;;;9.57;;
35990;SDS011;22064;42.672;23.282;2023-04-08T12:25:03;21.35;;;9.95;;
35990;SDS011;22064;42.672;23.282;2023-04-08T12:27:30;18.40;;;9.70;;
35990;SDS011;22064;42.672;23.282;2023-04-08T12:29:58;19.20;;;9.98;;
35990;SDS011;22064;42.672;23.282;2023-04-08T12:32:25;19.90;;;10.52;;
35990;SDS011;22064;42.672;23.282;2023-04-08T12:34:51;19.40;;;10.82;;
35990;SDS011;22064;42.672;23.282;2023-04-08T12:37:17;20.65;;;11.07;;
35990;SDS011;22064;42.672;23.282;2023-04-08T12:39:43;22.52;;;11.40;;
35990;SDS011;22064;42.672;23.282;2023-04-08T12:42:08;20.92;;;11.10;;
35990;SDS011;22064;42.672;23.282;2023-04-08T12:44:35;19.90;;;10.95;;
35990;SDS011;22064;42.672;23.282;2023-04-08T12:47:00;20.58;;;10.65;;
35990;SDS011;22064;42.672;23.282;2023-04-08T12:49:26;17.70;;;9.32;;
35990;SDS011;22064;42.672;23.282;2023-04-08T12:51:52;15.38;;;8.68;;
35990;SDS011;22064;42.672;23.282;2023-04-08T12:54:19;18.50;;;8.80;;
35990;SDS011;22064;42.672;23.282;2023-04-08T12:56:46;15.68;;;8.43;;
35990;SDS011;22064;42.672;23.282;2023-04-08T12:59:13;16.80;;;9.05;;
35990;SDS011;22064;42.672;23.282;2023-04-08T13:01:40;16.25;;;8.93;;
35990;SDS011;22064;42.672;23.282;2023-04-08T13:04:06;15.73;;;8.98;;
35990;SDS011;22064;42.672;23.282;2023-04-08T13:06:32;18.92;;;9.23;;
35990;SDS011;22064;42.672;23.282;2023-04-08T13:08:58;19.88;;;10.27;;
35990;SDS011;22064;42.672;23.282;2023-04-08T13:11:24;18.05;;;10.38;;
35990;SDS011;22064;42.672;23.282;2023-04-08T13:13:50;18.98;;;10.40;;
35990;SDS011;22064;42.672;23.282;2023-04-08T13:16:16;17.70;;;10.50;;
35990;SDS011;22064;42.672;23.282;2023-04-08T13:18:42;17.42;;;9.65;;
35990;SDS011;22064;42.672;23.282;2023-04-08T13:21:08;19.30;;;11.50;;
35990;SDS011;22064;42.672;23.282;2023-04-08T13:23:34;20.65;;;11.10;;
35990;SDS011;22064;42.672;23.282;2023-04-08T13:26:01;18.83;;;10.25;;
35990;SDS011;22064;42.672;23.282;2023-04-08T13:28:27;19.52;;;10.52;;
35990;SDS011;22064;42.672;23.282;2023-04-08T13:30:53;18.45;;;11.18;;
35990;SDS011;22064;42.672;23.282;2023-04-08T13:33:20;21.27;;;11.38;;
35990;SDS011;22064;42.672;23.282;2023-04-08T13:35:47;19.60;;;11.15;;
35990;SDS011;22064;42.672;23.282;2023-04-08T13:38:13;19.05;;;11.07;;
35990;SDS011;22064;42.672;23.282;2023-04-08T13:40:38;17.33;;;10.65;;
35990;SDS011;22064;42.672;23.282;2023-04-08T13:43:04;19.05;;;10.50;;
35990;SDS011;22064;42.672;23.282;2023-04-08T13:45:31;17.58;;;10.30;;
35990;SDS011;22064;42.672;23.282;2023-04-08T13:47:57;16.75;;;10.20;;
35990;SDS011;22064;42.672;23.282;2023-04-08T13:50:24;17.90;;;9.85;;
35990;SDS011;22064;42.672;23.282;2023-04-08T13:52:52;16.23;;;9.48;;
35990;SDS011;22064;42.672;23.282;2023-04-08T13:55:18;16.63;;;9.65;;
35990;SDS011;22064;42.672;23.282;2023-04-08T13:57:45;17.25;;;9.52;;
35990;SDS011;22064;42.672;23.282;2023-04-08T14:00:11;16.77;;;9.32;;
35990;SDS011;22064;42.672;23.282;2023-04-08T14:02:37;16.77;;;8.88;;
35990;SDS011;22064;42.672;23.282;2023-04-08T14:05:03;13.57;;;8.45;;
35990;SDS011;22064;42.672;23.282;2023-04-08T14:07:30;16.25;;;9.45;;
35990;SDS011;22064;42.672;23.282;2023-04-08T14:09:56;14.52;;;8.77;;
35990;SDS011;22064;42.672;23.282;2023-04-08T14:12:22;15.32;;;8.23;;
35990;SDS011;22064;42.672;23.282;2023-04-08T14:14:48;16.25;;;8.27;;
35990;SDS011;22064;42.672;23.282;2023-04-08T14:17:14;13.90;;;7.72;;
35990;SDS011;22064;42.672;23.282;2023-04-08T14:19:40;16.35;;;8.68;;
35990;SDS011;22064;42.672;23.282;2023-04-08T14:22:06;16.27;;;8.98;;
35990;SDS011;22064;42.672;23.282;2023-04-08T14:24:32;15.77;;;9.00;;
35990;SDS011;22064;42.672;23.282;2023-04-08T14:26:59;19.10;;;9.77;;
35990;SDS011;22064;42.672;23.282;2023-04-08T14:29:24;17.30;;;9.55;;
35990;SDS011;22064;42.672;23.282;2023-04-08T14:31:50;18.25;;;9.90;;
35990;SDS011;22064;42.672;23.282;2023-04-08T14:34:17;15.88;;;9.38;;